Time;durP1;ratioP1;P1;durP2;ratioP2;P2;SDS_P1;SDS_P2;PMS_P1;PMS_P2;Temp;Humidity;BMP_temperature;BMP_pressure;BME280_temperature;BME280_humidity;BME280_pressure;Samples;Min_cycle;Max_cycle;Signal;HPM_P1;HPM_P2
2022/10/29 00:00:32;;;;;;;4.47;1.70;;;;;;;;;;5026804;28;20064;-66
2022/10/29 00:02:58;;;;;;;15.07;1.90;;;;;;;;;;5005833;28;20057;-66
2022/10/29 00:05:25;;;;;;;3.85;1.50;;;;;;;;;;5025225;28;20079;-66
2022/10/29 00:07:53;;;;;;;10.73;1.70;;;;;;;;;;5021240;28;20312;-69
2022/10/29 00:10:19;;;;;;;10.05;1.52;;;;;;;;;;5026977;28;20056;-69
2022/10/29 00:12:46;;;;;;;7.80;1.70;;;;;;;;;;5029474;28;20045;-68
2022/10/29 00:15:14;;;;;;;8.48;2.10;;;;;;;;;;5023914;28;20060;-67
2022/10/29 00:17:40;;;;;;;12.77;1.90;;;;;;;;;;5029491;28;20076;-69
2022/10/29 00:20:07;;;;;;;12.18;1.83;;;;;;;;;;5019891;28;20065;-66
2022/10/29 00:22:34;;;;;;;12.32;1.85;;;;;;;;;;5030169;28;20057;-68
2022/10/29 00:25:03;;;;;;;8.75;1.88;;;;;;;;;;5021233;28;20099;-67
2022/10/29 00:27:30;;;;;;;6.57;1.92;;;;;;;;;;5029450;28;20056;-69
2022/10/29 00:29:56;;;;;;;16.42;1.98;;;;;;;;;;5023538;28;20106;-67
2022/10/29 00:32:23;;;;;;;15.82;2.15;;;;;;;;;;5029630;28;20045;-69
2022/10/29 00:34:50;;;;;;;9.30;1.65;;;;;;;;;;5022888;28;20059;-69
2022/10/29 00:37:17;;;;;;;9.23;2.10;;;;;;;;;;5026410;28;20050;-68
2022/10/29 00:39:43;;;;;;;6.05;1.85;;;;;;;;;;5023531;28;20156;-68
2022/10/29 00:42:15;;;;;;;5.05;2.05;;;;;;;;;;5036869;28;20053;-69
2022/10/29 00:44:41;;;;;;;5.00;1.67;;;;;;;;;;5012165;28;20114;-69
2022/10/29 00:47:18;;;;;;;5.97;2.00;;;;;;;;;;5026460;28;20049;-70
2022/10/29 00:49:45;;;;;;;7.22;1.90;;;;;;;;;;5021328;28;20061;-70
2022/10/29 00:52:13;;;;;;;9.10;1.88;;;;;;;;;;5019965;28;20064;-69
2022/10/29 00:54:41;;;;;;;4.68;1.67;;;;;;;;;;5065068;28;20067;-67
2022/10/29 00:57:11;;;;;;;4.38;1.70;;;;;;;;;;5035032;28;20120;-68
2022/10/29 00:59:39;;;;;;;4.97;1.90;;;;;;;;;;5027891;28;20059;-69
2022/10/29 01:02:05;;;;;;;6.00;1.48;;;;;;;;;;5039930;28;20040;-69
2022/10/29 01:04:36;;;;;;;5.88;1.92;;;;;;;;;;5045854;28;20048;-69
2022/10/29 01:07:03;;;;;;;3.72;1.73;;;;;;;;;;5026150;28;20045;-69
2022/10/29 01:09:29;;;;;;;4.00;1.60;;;;;;;;;;5028564;28;20053;-68
2022/10/29 01:12:03;;;;;;;5.53;1.98;;;;;;;;;;5023255;28;20052;-67
2022/10/29 01:14:32;;;;;;;5.32;1.88;;;;;;;;;;5029284;28;20056;-69
2022/10/29 01:17:05;;;;;;;5.50;1.80;;;;;;;;;;5023209;28;20063;-68
2022/10/29 01:19:46;;;;;;;5.60;2.22;;;;;;;;;;5028770;28;20053;-68
2022/10/29 01:22:16;;;;;;;4.95;1.75;;;;;;;;;;5016411;28;20056;-69
2022/10/29 01:25:00;;;;;;;7.72;2.13;;;;;;;;;;5028656;28;20064;-69
2022/10/29 01:27:38;;;;;;;3.85;1.67;;;;;;;;;;5034102;28;20049;-70
2022/10/29 01:30:09;;;;;;;4.15;1.83;;;;;;;;;;5028892;28;20106;-68
2022/10/29 01:32:43;;;;;;;4.28;1.77;;;;;;;;;;5023189;28;20053;-70
2022/10/29 01:35:15;;;;;;;6.35;2.03;;;;;;;;;;5028439;28;20061;-70
2022/10/29 01:37:46;;;;;;;7.57;2.03;;;;;;;;;;5022824;28;20056;-68
2022/10/29 01:40:17;;;;;;;5.95;2.17;;;;;;;;;;5028287;28;20084;-70
2022/10/29 01:42:47;;;;;;;3.83;1.70;;;;;;;;;;5031722;28;20048;-68
2022/10/29 01:45:18;;;;;;;4.75;1.85;;;;;;;;;;5048563;28;20048;-70
2022/10/29 01:47:49;;;;;;;6.70;2.35;;;;;;;;;;5034654;28;20068;-70
2022/10/29 01:50:17;;;;;;;5.45;1.90;;;;;;;;;;5027888;28;20049;-68
2022/10/29 01:52:44;;;;;;;8.45;2.17;;;;;;;;;;5023301;28;20165;-68
2022/10/29 01:55:11;;;;;;;7.40;2.15;;;;;;;;;;5027990;28;20056;-67
2022/10/29 01:57:38;;;;;;;9.52;2.17;;;;;;;;;;5035682;28;20113;-70
2022/10/29 02:00:07;;;;;;;9.80;2.03;;;;;;;;;;5048149;28;20040;-69
2022/10/29 02:02:42;;;;;;;5.28;2.03;;;;;;;;;;5022192;28;20117;-69
2022/10/29 02:05:17;;;;;;;5.07;2.15;;;;;;;;;;5025746;28;20052;-68
2022/10/29 02:07:46;;;;;;;5.75;1.92;;;;;;;;;;5022566;28;20065;-69
2022/10/29 02:10:16;;;;;;;5.43;2.03;;;;;;;;;;5044608;28;20081;-66
2022/10/29 02:12:46;;;;;;;5.82;2.05;;;;;;;;;;5036283;28;20049;-67
2022/10/29 02:15:17;;;;;;;5.45;2.00;;;;;;;;;;5056713;28;20057;-66
2022/10/29 02:17:44;;;;;;;8.95;3.08;;;;;;;;;;5026950;28;20080;-69
2022/10/29 02:20:13;;;;;;;10.13;3.17;;;;;;;;;;5026131;28;20049;-70
2022/10/29 02:22:41;;;;;;;8.27;3.47;;;;;;;;;;5047120;28;20057;-68
2022/10/29 02:25:11;;;;;;;6.65;2.17;;;;;;;;;;5038331;28;20056;-70
2022/10/29 02:27:38;;;;;;;4.70;2.00;;;;;;;;;;5044840;28;20116;-69
2022/10/29 02:30:05;;;;;;;5.40;2.20;;;;;;;;;;5027558;28;20072;-69
2022/10/29 02:32:32;;;;;;;6.28;2.33;;;;;;;;;;5027220;28;20128;-68
2022/10/29 02:34:58;;;;;;;5.72;2.20;;;;;;;;;;5030017;28;20057;-68
2022/10/29 02:37:25;;;;;;;4.65;1.88;;;;;;;;;;5044972;28;20060;-67
2022/10/29 02:39:53;;;;;;;5.93;1.90;;;;;;;;;;5037547;28;20053;-69
2022/10/29 02:42:20;;;;;;;7.40;2.28;;;;;;;;;;5044493;28;20053;-68
2022/10/29 02:44:47;;;;;;;5.28;1.83;;;;;;;;;;5037878;28;20057;-69
2022/10/29 02:47:13;;;;;;;6.05;1.67;;;;;;;;;;5044772;28;20154;-69
2022/10/29 02:49:40;;;;;;;8.35;2.85;;;;;;;;;;5038183;28;20114;-69
2022/10/29 02:52:06;;;;;;;7.90;2.00;;;;;;;;;;5043612;28;20065;-69
2022/10/29 02:54:33;;;;;;;4.70;2.05;;;;;;;;;;5038165;28;20057;-69
2022/10/29 02:57:01;;;;;;;8.20;2.75;;;;;;;;;;5045627;28;20057;-68
2022/10/29 02:59:27;;;;;;;8.32;2.53;;;;;;;;;;5050606;28;20153;-69
2022/10/29 03:01:54;;;;;;;10.75;3.58;;;;;;;;;;5027990;28;20103;-69
2022/10/29 03:04:22;;;;;;;6.65;2.20;;;;;;;;;;5029828;28;20073;-69
2022/10/29 03:06:49;;;;;;;6.97;2.10;;;;;;;;;;5023449;28;20108;-70
2022/10/29 03:09:15;;;;;;;4.90;2.13;;;;;;;;;;5030639;28;20049;-69
2022/10/29 03:11:42;;;;;;;9.57;3.60;;;;;;;;;;5033040;28;20050;-69
2022/10/29 03:14:10;;;;;;;4.57;2.03;;;;;;;;;;5028419;28;20107;-68
2022/10/29 03:16:37;;;;;;;7.40;3.33;;;;;;;;;;5026210;28;20045;-68
2022/10/29 03:19:03;;;;;;;13.80;3.33;;;;;;;;;;5031043;28;20060;-69
2022/10/29 03:21:31;;;;;;;9.18;2.60;;;;;;;;;;5036612;28;20072;-68
2022/10/29 03:23:59;;;;;;;5.97;2.33;;;;;;;;;;5048206;28;20060;-69
2022/10/29 03:26:25;;;;;;;6.97;2.47;;;;;;;;;;5042016;28;20041;-69
2022/10/29 03:28:52;;;;;;;9.13;3.55;;;;;;;;;;5047228;28;20057;-69
2022/10/29 03:31:20;;;;;;;14.02;2.25;;;;;;;;;;5040909;28;20049;-68
2022/10/29 03:33:47;;;;;;;15.20;4.50;;;;;;;;;;5034244;28;20049;-69
2022/10/29 03:36:13;;;;;;;5.05;2.10;;;;;;;;;;5027291;28;20126;-69
2022/10/29 03:38:40;;;;;;;11.88;2.47;;;;;;;;;;5051113;28;20048;-67
2022/10/29 03:41:09;;;;;;;5.55;2.50;;;;;;;;;;5067779;28;20063;-69
2022/10/29 03:43:35;;;;;;;13.18;3.65;;;;;;;;;;5027101;28;20080;-68
2022/10/29 03:46:02;;;;;;;12.52;3.45;;;;;;;;;;5031255;28;20144;-70
2022/10/29 03:48:30;;;;;;;28.13;2.95;;;;;;;;;;5025119;28;20152;-70
2022/10/29 03:50:58;;;;;;;8.02;2.20;;;;;;;;;;5031180;28;20053;-69
2022/10/29 03:53:25;;;;;;;4.43;1.90;;;;;;;;;;5028595;28;20064;-70
2022/10/29 03:55:52;;;;;;;11.10;2.15;;;;;;;;;;5047238;28;20045;-70
2022/10/29 03:58:19;;;;;;;5.65;2.28;;;;;;;;;;5005241;28;20139;-70
2022/10/29 04:00:53;;;;;;;4.13;1.80;;;;;;;;;;5009075;28;20053;-70
2022/10/29 04:03:19;;;;;;;5.25;2.10;;;;;;;;;;5001287;28;20100;-68
2022/10/29 04:05:48;;;;;;;6.35;2.13;;;;;;;;;;4989379;28;20046;-69
2022/10/29 04:08:14;;;;;;;12.02;2.78;;;;;;;;;;4984440;28;20068;-69
2022/10/29 04:10:43;;;;;;;9.60;3.22;;;;;;;;;;5008302;28;20046;-67
2022/10/29 04:13:09;;;;;;;;;;;;;;;;;;5002777;28;20049;-70
2022/10/29 04:15:36;;;;;;;6.28;2.40;;;;;;;;;;5023851;28;19932;-69
2022/10/29 04:18:02;;;;;;;9.88;3.67;;;;;;;;;;5005477;28;20049;-68
2022/10/29 04:20:29;;;;;;;4.72;2.00;;;;;;;;;;5016649;28;20040;-70
2022/10/29 04:22:57;;;;;;;7.68;2.90;;;;;;;;;;5023081;28;20114;-70
2022/10/29 04:25:23;;;;;;;5.78;2.03;;;;;;;;;;5009925;28;20061;-70
2022/10/29 04:27:50;;;;;;;4.20;1.70;;;;;;;;;;5010158;28;20057;-69
2022/10/29 04:30:16;;;;;;;8.38;2.55;;;;;;;;;;5021182;28;20164;-69
2022/10/29 04:32:43;;;;;;;5.93;2.30;;;;;;;;;;5010666;28;20107;-69
2022/10/29 04:35:10;;;;;;;10.30;3.90;;;;;;;;;;5019892;28;20057;-69
2022/10/29 04:37:36;;;;;;;7.18;3.10;;;;;;;;;;5037584;28;20037;-69
2022/10/29 04:40:05;;;;;;;6.72;2.83;;;;;;;;;;5021848;28;20057;-70
2022/10/29 04:42:36;;;;;;;8.35;3.08;;;;;;;;;;5026687;28;20053;-70
2022/10/29 04:45:02;;;;;;;9.07;3.05;;;;;;;;;;5021050;28;20049;-68
2022/10/29 04:47:29;;;;;;;7.93;2.97;;;;;;;;;;5010063;28;20076;-68
2022/10/29 04:49:55;;;;;;;7.18;3.20;;;;;;;;;;5000724;28;20137;-67
2022/10/29 04:52:22;;;;;;;10.13;3.65;;;;;;;;;;5007084;28;20085;-70
2022/10/29 04:54:48;;;;;;;14.43;4.78;;;;;;;;;;5005221;28;20057;-69
2022/10/29 04:57:16;;;;;;;5.50;2.50;;;;;;;;;;5021337;28;20102;-68
2022/10/29 04:59:43;;;;;;;12.38;4.60;;;;;;;;;;5007584;28;20052;-67
2022/10/29 05:02:10;;;;;;;17.98;5.43;;;;;;;;;;5029945;28;20063;-69
2022/10/29 05:04:38;;;;;;;6.05;2.40;;;;;;;;;;5022206;28;20052;-69
2022/10/29 05:07:04;;;;;;;8.18;3.53;;;;;;;;;;5029416;28;20060;-69
2022/10/29 05:09:31;;;;;;;11.68;4.30;;;;;;;;;;5029094;28;20075;-66
2022/10/29 05:11:58;;;;;;;8.32;3.10;;;;;;;;;;5019649;28;20113;-68
2022/10/29 05:14:26;;;;;;;10.70;4.13;;;;;;;;;;5009590;28;20049;-69
2022/10/29 05:16:52;;;;;;;11.68;3.72;;;;;;;;;;5039863;28;20053;-69
2022/10/29 05:19:19;;;;;;;6.22;2.67;;;;;;;;;;5028841;28;20140;-66
2022/10/29 05:21:46;;;;;;;5.20;2.08;;;;;;;;;;5039632;28;20053;-69
2022/10/29 05:24:12;;;;;;;8.00;2.67;;;;;;;;;;5045423;28;20079;-66
2022/10/29 05:26:39;;;;;;;4.95;2.42;;;;;;;;;;5039455;28;20110;-69
2022/10/29 05:29:05;;;;;;;5.75;2.30;;;;;;;;;;5029384;28;20053;-68
2022/10/29 05:31:33;;;;;;;7.15;3.13;;;;;;;;;;5031368;28;20037;-69
2022/10/29 05:34:01;;;;;;;11.03;4.37;;;;;;;;;;5026341;28;20049;-70
2022/10/29 05:36:27;;;;;;;5.45;2.50;;;;;;;;;;5023333;28;20312;-68
2022/10/29 05:38:54;;;;;;;18.30;4.65;;;;;;;;;;5014169;28;20053;-69
2022/10/29 05:41:20;;;;;;;12.13;3.20;;;;;;;;;;4991157;28;20064;-67
2022/10/29 05:43:48;;;;;;;5.03;2.05;;;;;;;;;;5027297;28;20057;-69
2022/10/29 05:46:15;;;;;;;13.10;4.57;;;;;;;;;;5023441;28;20060;-67
2022/10/29 05:48:43;;;;;;;8.80;2.80;;;;;;;;;;5027988;28;20049;-70
2022/10/29 05:51:10;;;;;;;5.28;2.10;;;;;;;;;;5028682;28;20045;-69
2022/10/29 05:53:36;;;;;;;9.73;3.88;;;;;;;;;;5023002;28;20076;-70
2022/10/29 05:56:03;;;;;;;11.25;4.25;;;;;;;;;;5028634;28;20102;-69
2022/10/29 05:58:30;;;;;;;9.95;3.17;;;;;;;;;;5022376;28;20060;-67
2022/10/29 06:00:56;;;;;;;10.02;4.28;;;;;;;;;;5028653;28;20057;-65
2022/10/29 06:03:23;;;;;;;8.07;2.70;;;;;;;;;;5022373;28;20064;-69
2022/10/29 06:05:51;;;;;;;5.13;2.22;;;;;;;;;;5026686;28;20048;-69
2022/10/29 06:08:18;;;;;;;10.52;4.50;;;;;;;;;;5022100;28;20056;-66
2022/10/29 06:10:45;;;;;;;8.90;3.25;;;;;;;;;;5027024;28;20063;-70
2022/10/29 06:13:11;;;;;;;12.38;3.83;;;;;;;;;;5028225;28;20053;-69
2022/10/29 06:15:39;;;;;;;9.00;3.67;;;;;;;;;;5028612;28;20063;-70
2022/10/29 06:18:06;;;;;;;4.57;2.20;;;;;;;;;;5021946;28;20146;-69
2022/10/29 06:20:32;;;;;;;16.58;4.85;;;;;;;;;;5044177;28;20049;-69
2022/10/29 06:23:00;;;;;;;12.27;4.30;;;;;;;;;;5021824;28;20060;-69
2022/10/29 06:25:27;;;;;;;7.65;3.03;;;;;;;;;;5027645;28;20063;-66
2022/10/29 06:27:57;;;;;;;8.25;3.17;;;;;;;;;;5019976;28;20060;-69
2022/10/29 06:30:24;;;;;;;4.85;2.42;;;;;;;;;;5008664;28;20050;-69
2022/10/29 06:32:51;;;;;;;5.55;2.08;;;;;;;;;;5006073;28;20111;-68
2022/10/29 06:35:17;;;;;;;4.97;2.30;;;;;;;;;;5026020;28;20052;-70
2022/10/29 06:37:44;;;;;;;5.80;2.60;;;;;;;;;;5027413;28;20053;-70
2022/10/29 06:40:12;;;;;;;12.50;4.88;;;;;;;;;;5038454;28;20067;-69
2022/10/29 06:42:39;;;;;;;11.77;4.18;;;;;;;;;;5048113;28;20052;-70
2022/10/29 06:45:06;;;;;;;13.52;4.75;;;;;;;;;;5043537;28;20116;-69
2022/10/29 06:47:38;;;;;;;6.25;2.78;;;;;;;;;;5027601;28;20049;-67
2022/10/29 06:50:04;;;;;;;17.63;4.72;;;;;;;;;;5020895;28;20056;-65
2022/10/29 06:52:32;;;;;;;5.72;2.60;;;;;;;;;;5028082;28;20106;-69
2022/10/29 06:55:01;;;;;;;5.07;2.13;;;;;;;;;;5022209;28;20103;-68
2022/10/29 06:57:30;;;;;;;20.27;8.75;;;;;;;;;;5027202;28;20123;-67
2022/10/29 06:59:57;;;;;;;47.20;17.70;;;;;;;;;;5018266;28;20080;-68
2022/10/29 07:02:24;;;;;;;29.20;14.90;;;;;;;;;;5023380;28;20044;-68
2022/10/29 07:04:51;;;;;;;25.25;8.55;;;;;;;;;;5017288;28;20053;-67
2022/10/29 07:07:17;;;;;;;15.40;6.40;;;;;;;;;;5024887;28;20088;-65
2022/10/29 07:09:44;;;;;;;15.57;5.32;;;;;;;;;;5017063;28;20056;-67
2022/10/29 07:12:11;;;;;;;16.35;5.05;;;;;;;;;;5024826;28;20068;-67
2022/10/29 07:14:39;;;;;;;13.23;5.13;;;;;;;;;;5035645;28;20060;-67
2022/10/29 07:17:05;;;;;;;15.48;4.90;;;;;;;;;;5023786;28;20259;-70
2022/10/29 07:19:32;;;;;;;12.38;5.07;;;;;;;;;;5024977;28;20133;-70
2022/10/29 07:21:59;;;;;;;9.20;3.55;;;;;;;;;;5016692;28;20067;-69
2022/10/29 07:24:26;;;;;;;5.00;2.40;;;;;;;;;;5026336;28;20053;-70
2022/10/29 07:26:53;;;;;;;11.82;4.47;;;;;;;;;;5033843;28;20064;-70
2022/10/29 07:29:19;;;;;;;5.78;2.42;;;;;;;;;;5023989;28;20053;-68
2022/10/29 07:31:47;;;;;;;14.80;4.65;;;;;;;;;;5017887;28;20053;-70
2022/10/29 07:34:14;;;;;;;12.45;4.55;;;;;;;;;;5023331;28;20056;-69
2022/10/29 07:36:40;;;;;;;8.55;2.50;;;;;;;;;;5019775;28;20053;-70
2022/10/29 07:39:07;;;;;;;15.15;4.90;;;;;;;;;;5026773;28;20145;-70
2022/10/29 07:41:34;;;;;;;8.75;3.60;;;;;;;;;;5021757;28;20138;-69
2022/10/29 07:44:00;;;;;;;14.20;4.93;;;;;;;;;;5029703;28;20234;-70
2022/10/29 07:46:27;;;;;;;9.38;3.78;;;;;;;;;;5025318;28;20045;-69
2022/10/29 07:48:55;;;;;;;15.05;4.97;;;;;;;;;;5018128;28;20049;-70
2022/10/29 07:51:21;;;;;;;10.55;4.28;;;;;;;;;;5022815;28;20207;-68
2022/10/29 07:53:48;;;;;;;11.90;4.88;;;;;;;;;;5027944;28;20052;-70
2022/10/29 07:56:15;;;;;;;21.30;6.63;;;;;;;;;;5024671;28;20071;-70
2022/10/29 07:58:41;;;;;;;13.77;5.82;;;;;;;;;;5047206;28;20057;-70
2022/10/29 08:01:08;;;;;;;17.23;6.05;;;;;;;;;;5048015;28;20049;-72
2022/10/29 08:03:34;;;;;;;10.88;4.00;;;;;;;;;;5038231;28;20053;-72
2022/10/29 08:06:02;;;;;;;11.10;4.13;;;;;;;;;;5047063;28;20052;-72
2022/10/29 08:08:29;;;;;;;11.38;5.18;;;;;;;;;;5027380;28;20053;-67
2022/10/29 08:10:59;;;;;;;18.85;5.18;;;;;;;;;;5030460;28;20106;-71
2022/10/29 08:13:26;;;;;;;16.23;5.30;;;;;;;;;;5019026;28;20064;-72
2022/10/29 08:15:53;;;;;;;7.43;3.40;;;;;;;;;;5030283;28;20172;-72
2022/10/29 08:18:20;;;;;;;11.50;4.47;;;;;;;;;;5024512;28;20056;-71
2022/10/29 08:20:46;;;;;;;9.00;3.75;;;;;;;;;;5025903;28;20065;-68
2022/10/29 08:23:14;;;;;;;8.50;2.78;;;;;;;;;;5024406;28;20060;-71
2022/10/29 08:25:42;;;;;;;15.88;5.68;;;;;;;;;;5040953;28;20106;-72
2022/10/29 08:28:09;;;;;;;12.18;4.85;;;;;;;;;;5053447;28;20097;-68
2022/10/29 08:30:36;;;;;;;14.13;5.93;;;;;;;;;;5046436;28;20065;-72
2022/10/29 08:33:03;;;;;;;10.57;4.47;;;;;;;;;;5039543;28;20059;-71
2022/10/29 08:35:30;;;;;;;8.60;3.72;;;;;;;;;;5047135;28;20057;-69
2022/10/29 08:37:56;;;;;;;8.57;3.95;;;;;;;;;;5028010;28;20499;-67
2022/10/29 08:40:37;;;;;;;16.50;5.78;;;;;;;;;;5025144;28;20094;-69
2022/10/29 08:43:18;;;;;;;9.48;4.60;;;;;;;;;;5020419;28;20053;-71
2022/10/29 08:45:46;;;;;;;10.20;4.28;;;;;;;;;;5021474;28;20054;-71
2022/10/29 08:48:19;;;;;;;10.10;4.60;;;;;;;;;;5021780;28;20098;-73
2022/10/29 08:50:48;;;;;;;15.65;6.25;;;;;;;;;;5039034;28;20292;-73
2022/10/29 08:53:16;;;;;;;7.43;3.53;;;;;;;;;;5027161;28;20060;-70
2022/10/29 08:55:44;;;;;;;14.25;5.03;;;;;;;;;;5019403;28;20098;-70
2022/10/29 08:58:13;;;;;;;15.80;5.80;;;;;;;;;;5021209;28;20057;-72
2022/10/29 09:00:41;;;;;;;13.52;4.75;;;;;;;;;;5012392;28;20045;-68
2022/10/29 09:03:09;;;;;;;10.50;4.20;;;;;;;;;;5025682;28;20049;-71
2022/10/29 09:05:50;;;;;;;15.70;5.45;;;;;;;;;;5018004;28;20427;-69
2022/10/29 09:08:25;;;;;;;16.65;5.40;;;;;;;;;;5025813;28;20045;-69
2022/10/29 09:10:53;;;;;;;14.20;5.57;;;;;;;;;;5005075;28;20289;-70
2022/10/29 09:13:28;;;;;;;13.50;5.95;;;;;;;;;;5018703;28;20127;-69
2022/10/29 09:16:01;;;;;;;11.85;4.78;;;;;;;;;;5031369;28;20059;-71
2022/10/29 09:18:37;;;;;;;13.20;5.75;;;;;;;;;;5026235;28;20053;-71
2022/10/29 09:21:08;;;;;;;19.35;6.22;;;;;;;;;;5009412;28;20116;-73
2022/10/29 09:23:46;;;;;;;19.42;6.60;;;;;;;;;;5006250;28;20135;-70
2022/10/29 09:26:16;;;;;;;16.35;6.00;;;;;;;;;;5000511;28;20046;-71
2022/10/29 09:28:48;;;;;;;13.50;5.53;;;;;;;;;;5006195;28;20143;-73
2022/10/29 09:31:20;;;;;;;19.00;5.70;;;;;;;;;;5012682;28;20057;-72
2022/10/29 09:33:48;;;;;;;20.33;5.95;;;;;;;;;;5026147;28;20060;-73
2022/10/29 09:36:16;;;;;;;17.13;6.00;;;;;;;;;;5010321;28;20081;-73
2022/10/29 09:38:47;;;;;;;12.30;5.53;;;;;;;;;;5005900;28;20316;-71
2022/10/29 09:41:15;;;;;;;12.65;5.15;;;;;;;;;;5007682;28;20307;-69
2022/10/29 09:43:47;;;;;;;14.07;5.68;;;;;;;;;;5025469;28;20062;-68
2022/10/29 09:46:20;;;;;;;14.30;6.00;;;;;;;;;;5019121;28;20049;-72
2022/10/29 09:48:49;;;;;;;17.85;6.03;;;;;;;;;;5025358;28;20049;-70
2022/10/29 09:51:22;;;;;;;15.68;5.22;;;;;;;;;;5014356;28;20053;-71
2022/10/29 09:53:49;;;;;;;17.63;6.20;;;;;;;;;;5004979;28;20050;-70
2022/10/29 09:56:18;;;;;;;22.65;5.63;;;;;;;;;;5006799;28;20057;-69
2022/10/29 09:58:46;;;;;;;19.20;6.15;;;;;;;;;;5028571;28;20056;-68
2022/10/29 10:01:13;;;;;;;13.98;5.60;;;;;;;;;;5021206;28;20059;-66
2022/10/29 10:03:44;;;;;;;14.35;5.00;;;;;;;;;;5024590;28;20099;-65
2022/10/29 10:06:12;;;;;;;14.13;4.97;;;;;;;;;;5014392;28;20049;-66
2022/10/29 10:08:58;;;;;;;15.50;4.75;;;;;;;;;;5026914;28;20045;-70
2022/10/29 10:11:35;;;;;;;13.98;5.65;;;;;;;;;;5023953;28;20048;-65
2022/10/29 10:14:04;;;;;;;15.10;6.53;;;;;;;;;;5010382;28;20057;-69
2022/10/29 10:16:33;;;;;;;14.73;4.95;;;;;;;;;;5028611;28;20114;-70
2022/10/29 10:18:59;;;;;;;23.02;5.35;;;;;;;;;;5022282;28;20044;-71
2022/10/29 10:21:27;;;;;;;15.45;5.43;;;;;;;;;;5032958;28;20065;-69
2022/10/29 10:23:56;;;;;;;14.77;4.55;;;;;;;;;;5023965;28;20139;-69
2022/10/29 10:26:32;;;;;;;16.58;5.93;;;;;;;;;;5018949;28;20119;-70
2022/10/29 10:29:19;;;;;;;12.82;5.20;;;;;;;;;;5019327;28;20107;-72
2022/10/29 10:31:46;;;;;;;13.27;6.10;;;;;;;;;;5018827;28;20069;-71
2022/10/29 10:34:18;;;;;;;15.95;6.70;;;;;;;;;;5021133;28;20057;-71
2022/10/29 10:36:47;;;;;;;13.25;5.93;;;;;;;;;;5027795;28;20095;-71
2022/10/29 10:39:19;;;;;;;13.88;5.82;;;;;;;;;;5020848;28;20053;-68
2022/10/29 10:41:49;;;;;;;13.80;4.20;;;;;;;;;;5028256;28;20065;-70
2022/10/29 10:44:18;;;;;;;15.05;4.80;;;;;;;;;;5021126;28;20060;-70
2022/10/29 10:46:46;;;;;;;18.75;6.25;;;;;;;;;;5027834;28;20049;-69
2022/10/29 10:49:14;;;;;;;15.55;4.97;;;;;;;;;;5021796;28;20086;-70
2022/10/29 10:51:41;;;;;;;;;;;;;;;;;;5028674;28;20164;-71
2022/10/29 10:54:26;;;;;;;10.32;4.80;;;;;;;;;;5021292;28;20024;-71
2022/10/29 10:56:56;;;;;;;12.90;4.63;;;;;;;;;;5031592;28;20055;-71
2022/10/29 10:59:24;;;;;;;16.50;5.80;;;;;;;;;;5029135;28;20140;-72
2022/10/29 11:01:54;;;;;;;14.02;5.53;;;;;;;;;;5024785;28;20054;-71
2022/10/29 11:04:24;;;;;;;17.08;6.43;;;;;;;;;;5023599;28;20299;-68
2022/10/29 11:06:53;;;;;;;15.70;5.25;;;;;;;;;;5044684;28;20052;-72
2022/10/29 11:09:19;;;;;;;;;;;;;;;;;;5035195;28;20094;-71
2022/10/29 11:11:49;;;;;;;13.27;4.93;;;;;;;;;;5038074;28;20037;-71
2022/10/29 11:14:23;;;;;;;12.40;5.28;;;;;;;;;;5013203;28;20044;-68
2022/10/29 11:16:51;;;;;;;16.33;5.55;;;;;;;;;;5021537;28;20080;-72
2022/10/29 11:19:18;;;;;;;;;;;;;;;;;;5023507;28;20061;-70
2022/10/29 11:21:46;;;;;;;16.13;4.47;;;;;;;;;;5031666;28;19925;-69
2022/10/29 11:24:16;;;;;;;9.63;4.80;;;;;;;;;;5023799;28;20054;-71
2022/10/29 11:26:47;;;;;;;13.00;4.82;;;;;;;;;;5064397;28;20064;-71
2022/10/29 11:29:17;;;;;;;12.82;4.80;;;;;;;;;;5037748;28;20145;-70
2022/10/29 11:31:49;;;;;;;11.55;5.18;;;;;;;;;;5040702;28;20115;-69
2022/10/29 11:34:18;;;;;;;16.98;5.70;;;;;;;;;;5038124;28;20061;-64
2022/10/29 11:36:48;;;;;;;15.18;6.32;;;;;;;;;;5039686;28;20105;-69
2022/10/29 11:39:17;;;;;;;12.75;5.60;;;;;;;;;;5038256;28;20167;-66
2022/10/29 11:41:46;;;;;;;16.05;4.90;;;;;;;;;;5022130;28;20065;-64
2022/10/29 11:44:13;;;;;;;13.30;5.82;;;;;;;;;;5027901;28;20103;-70
2022/10/29 11:46:46;;;;;;;17.20;6.10;;;;;;;;;;5008768;28;20068;-70
2022/10/29 11:49:22;;;;;;;16.98;5.43;;;;;;;;;;5031913;28;20072;-64
2022/10/29 11:51:52;;;;;;;12.45;5.15;;;;;;;;;;5033406;28;20049;-64
2022/10/29 11:54:27;;;;;;;15.25;5.50;;;;;;;;;;5046420;28;20059;-67
2022/10/29 11:56:57;;;;;;;21.10;5.63;;;;;;;;;;5031503;28;20159;-66
2022/10/29 11:59:31;;;;;;;19.88;6.05;;;;;;;;;;5015732;28;20062;-61
2022/10/29 12:02:02;;;;;;;15.65;6.43;;;;;;;;;;5014204;28;20041;-70
2022/10/29 12:04:31;;;;;;;13.18;5.47;;;;;;;;;;5017114;28;20123;-67
2022/10/29 12:06:57;;;;;;;;;;;;;;;;;;5010308;28;20053;-69
2022/10/29 12:09:31;;;;;;;16.90;5.40;;;;;;;;;;5018333;28;19935;-69
2022/10/29 12:12:02;;;;;;;16.27;5.63;;;;;;;;;;5001729;28;20057;-66
2022/10/29 12:14:32;;;;;;;14.73;4.85;;;;;;;;;;4999292;28;20096;-69
2022/10/29 12:17:01;;;;;;;18.42;5.25;;;;;;;;;;5005052;28;20099;-68
2022/10/29 12:19:35;;;;;;;12.18;4.65;;;;;;;;;;5009399;28;20053;-70
2022/10/29 12:22:06;;;;;;;14.45;4.57;;;;;;;;;;5000455;28;20048;-70
2022/10/29 12:24:39;;;;;;;13.32;4.97;;;;;;;;;;5009575;28;20064;-71
2022/10/29 12:27:13;;;;;;;12.70;5.32;;;;;;;;;;5003617;28;20073;-70
2022/10/29 12:29:46;;;;;;;11.02;4.75;;;;;;;;;;5009581;28;20045;-70
2022/10/29 12:32:15;;;;;;;18.00;5.68;;;;;;;;;;5003880;28;20149;-70
2022/10/29 12:34:46;;;;;;;14.88;5.43;;;;;;;;;;5006267;28;20057;-69
2022/10/29 12:37:17;;;;;;;20.73;5.75;;;;;;;;;;5001453;28;20172;-69
2022/10/29 12:39:46;;;;;;;17.13;5.25;;;;;;;;;;5006034;28;20053;-69
2022/10/29 12:42:16;;;;;;;13.18;4.53;;;;;;;;;;5003091;28;20156;-67
2022/10/29 12:44:46;;;;;;;12.70;5.20;;;;;;;;;;5014492;28;20084;-69
2022/10/29 12:47:15;;;;;;;12.52;5.30;;;;;;;;;;5009443;28;20046;-71
2022/10/29 12:49:51;;;;;;;15.25;4.95;;;;;;;;;;5000403;28;20064;-68
2022/10/29 12:52:20;;;;;;;15.63;5.90;;;;;;;;;;5008138;28;20045;-71
2022/10/29 12:54:49;;;;;;;14.70;6.30;;;;;;;;;;5000151;28;20096;-72
2022/10/29 12:57:24;;;;;;;18.65;6.40;;;;;;;;;;5016414;28;20136;-69
2022/10/29 12:59:50;;;;;;;14.55;5.25;;;;;;;;;;5010557;28;20054;-70
2022/10/29 13:02:18;;;;;;;13.07;5.38;;;;;;;;;;5024679;28;20038;-70
2022/10/29 13:05:00;;;;;;;15.32;4.85;;;;;;;;;;5019300;28;20060;-70
2022/10/29 13:07:28;;;;;;;14.75;5.40;;;;;;;;;;5026418;28;20424;-70
2022/10/29 13:10:09;;;;;;;13.23;4.68;;;;;;;;;;5018179;28;20076;-70
2022/10/29 13:12:51;;;;;;;17.60;5.40;;;;;;;;;;5016603;28;20053;-67
2022/10/29 13:15:20;;;;;;;15.43;6.13;;;;;;;;;;5013973;28;20056;-68
2022/10/29 13:17:48;;;;;;;13.30;5.05;;;;;;;;;;5027235;28;20045;-70
2022/10/29 13:20:20;;;;;;;15.10;4.70;;;;;;;;;;5020829;28;20150;-68
2022/10/29 13:22:52;;;;;;;14.07;5.22;;;;;;;;;;5028054;28;20049;-70
2022/10/29 13:25:43;;;;;;;14.40;5.13;;;;;;;;;;5021923;28;20064;-69
2022/10/29 13:28:25;;;;;;;22.55;5.50;;;;;;;;;;5044027;28;20182;-69
2022/10/29 13:30:52;;;;;;;20.70;5.85;;;;;;;;;;5007834;28;20063;-68
2022/10/29 13:33:35;;;;;;;20.80;5.47;;;;;;;;;;5027581;28;20053;-70
2022/10/29 13:36:02;;;;;;;22.23;5.10;;;;;;;;;;5034761;28;20098;-70
2022/10/29 13:38:41;;;;;;;18.92;4.97;;;;;;;;;;5025027;28;20056;-65
2022/10/29 13:41:07;;;;;;;;;;;;;;;;;;5018361;28;20041;-69
2022/10/29 13:43:34;;;;;;;19.40;4.70;;;;;;;;;;5027293;28;19925;-70
2022/10/29 13:46:28;;;;;;;15.68;5.20;;;;;;;;;;5021046;28;20055;-71
2022/10/29 13:48:55;;;;;;;14.98;4.97;;;;;;;;;;5027041;28;20057;-71
2022/10/29 13:51:25;;;;;;;19.45;5.00;;;;;;;;;;5017963;28;20061;-69
2022/10/29 13:53:56;;;;;;;12.25;4.60;;;;;;;;;;5023789;28;20057;-69
2022/10/29 13:56:27;;;;;;;21.75;5.13;;;;;;;;;;4981111;28;1146292;-71
2022/10/29 13:58:53;;;;;;;13.45;4.97;;;;;;;;;;5044232;28;20061;-71
2022/10/29 14:01:21;;;;;;;12.32;4.57;;;;;;;;;;5022651;28;20045;-73
2022/10/29 14:03:54;;;;;;;15.87;5.20;;;;;;;;;;5025186;28;20045;-67
2022/10/29 14:06:23;;;;;;;13.43;5.00;;;;;;;;;;5036990;28;20072;-69
2022/10/29 14:08:53;;;;;;;15.07;4.82;;;;;;;;;;5043793;28;20060;-68
2022/10/29 14:11:23;;;;;;;16.30;5.22;;;;;;;;;;5027605;28;20067;-68
2022/10/29 14:13:50;;;;;;;15.95;5.35;;;;;;;;;;5024645;28;20053;-72
2022/10/29 14:16:19;;;;;;;13.60;4.60;;;;;;;;;;5021036;28;20041;-72
2022/10/29 14:18:46;;;;;;;18.90;4.63;;;;;;;;;;5043383;28;20307;-71
2022/10/29 14:21:14;;;;;;;20.02;4.50;;;;;;;;;;5038524;28;20048;-72
2022/10/29 14:23:40;;;;;;;15.45;5.20;;;;;;;;;;5043432;28;20056;-69
2022/10/29 14:26:12;;;;;;;9.85;3.80;;;;;;;;;;5030271;28;20106;-69
2022/10/29 14:28:40;;;;;;;20.92;5.70;;;;;;;;;;5033818;28;20101;-70
2022/10/29 14:31:11;;;;;;;9.10;4.00;;;;;;;;;;5031241;28;20127;-68
2022/10/29 14:33:39;;;;;;;13.60;4.93;;;;;;;;;;5035734;28;20044;-72
2022/10/29 14:36:08;;;;;;;9.13;3.60;;;;;;;;;;5032770;28;20140;-72
2022/10/29 14:38:40;;;;;;;19.27;4.20;;;;;;;;;;5021988;28;20057;-65
2022/10/29 14:41:07;;;;;;;17.38;4.57;;;;;;;;;;5023961;28;20049;-68
2022/10/29 14:43:34;;;;;;;12.88;4.80;;;;;;;;;;5022593;28;20123;-70
2022/10/29 14:46:20;;;;;;;13.17;4.07;;;;;;;;;;5043833;28;20147;-67